Time;durP1;ratioP1;P1;durP2;ratioP2;P2;SDS_P1;SDS_P2;PMS_P1;PMS_P2;Temp;Humidity;BMP_temperature;BMP_pressure;BME280_temperature;BME280_humidity;BME280_pressure;Samples;Min_cycle;Max_cycle;Signal;HPM_P1;HPM_P2
2023/08/14 00:01:42;;;;;;;9.48;2.05;;;17.70;99.90;;;;;;4863491;29;20069;-53
2023/08/14 00:04:09;;;;;;;8.38;1.80;;;17.70;99.90;;;;;;4863618;29;20129;-52
2023/08/14 00:06:36;;;;;;;11.52;2.25;;;17.70;99.90;;;;;;4863499;29;20048;-51
2023/08/14 00:09:03;;;;;;;8.82;2.00;;;17.70;99.90;;;;;;4863617;29;20124;-50
2023/08/14 00:11:30;;;;;;;7.93;2.00;;;17.70;99.90;;;;;;4863532;29;20443;-51
2023/08/14 00:13:57;;;;;;;10.45;2.05;;;17.70;99.90;;;;;;4863528;29;20105;-51
2023/08/14 00:16:23;;;;;;;7.50;2.03;;;17.70;99.90;;;;;;4862967;29;20564;-50
2023/08/14 00:18:50;;;;;;;9.20;2.00;;;17.70;99.90;;;;;;4863552;29;20042;-54
2023/08/14 00:21:17;;;;;;;14.13;2.80;;;17.60;99.90;;;;;;4863220;29;20363;-54
2023/08/14 00:23:44;;;;;;;9.32;2.25;;;17.60;99.90;;;;;;4863248;29;20072;-54
2023/08/14 00:26:11;;;;;;;11.52;2.53;;;17.60;99.90;;;;;;4863312;29;20077;-53
2023/08/14 00:28:38;;;;;;;10.30;2.60;;;17.60;99.90;;;;;;4862136;29;20045;-53
2023/08/14 00:31:06;;;;;;;8.50;2.40;;;17.60;99.90;;;;;;4877657;29;20079;-53
2023/08/14 00:33:33;;;;;;;7.85;2.05;;;17.60;99.90;;;;;;4862873;29;20132;-48
2023/08/14 00:36:00;;;;;;;11.45;2.60;;;17.60;99.90;;;;;;4862732;29;20042;-52
2023/08/14 00:38:27;;;;;;;13.52;2.58;;;17.50;99.90;;;;;;4876743;29;20046;-51
2023/08/14 00:40:54;;;;;;;10.70;2.70;;;17.50;99.90;;;;;;4862992;29;20094;-50
2023/08/14 00:43:21;;;;;;;6.57;2.10;;;17.60;99.90;;;;;;4862837;29;20469;-50
2023/08/14 00:45:49;;;;;;;11.55;2.42;;;17.50;99.90;;;;;;4877247;29;20384;-50
2023/08/14 00:48:16;;;;;;;11.82;2.53;;;17.60;99.90;;;;;;4861167;29;20049;-48
2023/08/14 00:50:42;;;;;;;10.18;2.35;;;17.50;99.90;;;;;;4862301;29;20498;-47
2023/08/14 00:53:09;;;;;;;13.13;2.67;;;17.60;99.90;;;;;;4861056;29;20042;-47
2023/08/14 00:55:36;;;;;;;10.95;2.45;;;17.60;99.90;;;;;;4862735;29;20145;-47
2023/08/14 00:58:03;;;;;;;10.55;2.78;;;17.70;99.90;;;;;;4876209;29;20508;-49
2023/08/14 01:00:32;;;;;;;7.80;2.85;;;17.60;99.90;;;;;;4861642;29;20400;-50
2023/08/14 01:02:59;;;;;;;8.93;2.28;;;17.60;99.90;;;;;;4877129;29;20052;-54
2023/08/14 01:05:26;;;;;;;8.57;2.22;;;17.70;99.90;;;;;;4861411;29;20046;-50
2023/08/14 01:07:53;;;;;;;11.57;2.42;;;17.70;99.90;;;;;;4862463;29;20045;-53
2023/08/14 01:10:20;;;;;;;9.80;2.45;;;17.70;99.90;;;;;;4861415;29;20057;-55
2023/08/14 01:12:47;;;;;;;9.32;2.25;;;17.70;99.90;;;;;;4876543;29;20069;-50
2023/08/14 01:15:14;;;;;;;10.00;2.47;;;17.70;99.90;;;;;;4861059;29;20152;-54
2023/08/14 01:17:41;;;;;;;9.93;2.38;;;17.70;99.90;;;;;;4862095;29;20129;-56
2023/08/14 01:20:08;;;;;;;7.82;2.20;;;17.60;99.90;;;;;;4876560;29;20446;-51
2023/08/14 01:22:36;;;;;;;10.85;2.10;;;17.60;99.90;;;;;;4862205;29;20077;-52
2023/08/14 01:25:03;;;;;;;8.10;2.20;;;17.60;99.90;;;;;;4862576;29;20047;-56
2023/08/14 01:27:29;;;;;;;10.05;2.58;;;17.60;99.90;;;;;;4861851;29;20389;-51
2023/08/14 01:29:56;;;;;;;10.10;2.40;;;17.60;99.90;;;;;;4862274;29;20522;-52
2023/08/14 01:32:23;;;;;;;10.13;2.35;;;17.60;99.90;;;;;;4875807;29;20045;-52
2023/08/14 01:34:50;;;;;;;11.02;2.42;;;17.60;99.90;;;;;;4861762;29;20083;-50
2023/08/14 01:37:16;;;;;;;8.32;2.60;;;17.60;99.90;;;;;;4861900;29;20053;-54
2023/08/14 01:39:43;;;;;;;12.90;2.33;;;17.60;99.90;;;;;;4861941;29;20101;-53
2023/08/14 01:42:10;;;;;;;12.27;2.50;;;17.70;99.90;;;;;;4860645;29;20037;-50
2023/08/14 01:44:37;;;;;;;9.88;2.20;;;17.60;99.90;;;;;;4861696;29;20109;-53
2023/08/14 01:47:04;;;;;;;9.80;1.98;;;17.60;99.90;;;;;;4860472;29;20057;-52
2023/08/14 01:49:31;;;;;;;10.88;2.00;;;17.60;99.90;;;;;;4876114;29;20102;-51
2023/08/14 01:51:57;;;;;;;7.97;2.00;;;17.60;99.90;;;;;;4860738;29;20046;-49
2023/08/14 01:54:26;;;;;;;13.10;2.63;;;17.60;99.90;;;;;;4861109;29;20041;-53
2023/08/14 01:56:52;;;;;;;8.70;2.40;;;17.60;99.90;;;;;;4861485;29;20072;-50
2023/08/14 01:59:19;;;;;;;6.70;1.70;;;17.60;99.90;;;;;;4861520;29;20521;-52
2023/08/14 02:01:46;;;;;;;7.03;2.05;;;17.60;99.90;;;;;;4875645;29;20181;-54
2023/08/14 02:04:15;;;;;;;6.90;1.48;;;17.60;99.90;;;;;;4860158;29;20128;-53
2023/08/14 02:06:41;;;;;;;6.85;1.63;;;17.60;99.90;;;;;;4861204;29;20041;-53
2023/08/14 02:09:08;;;;;;;9.73;2.25;;;17.70;99.90;;;;;;4861057;29;20056;-53
2023/08/14 02:11:35;;;;;;;7.32;2.00;;;17.70;99.90;;;;;;4861272;29;20132;-55
2023/08/14 02:14:02;;;;;;;7.43;1.70;;;17.70;99.90;;;;;;4875694;29;20379;-56
2023/08/14 02:16:29;;;;;;;9.00;2.08;;;17.60;99.90;;;;;;4860615;29;20052;-55
2023/08/14 02:18:56;;;;;;;6.80;1.70;;;17.70;99.90;;;;;;4859903;29;20471;-52
2023/08/14 02:21:23;;;;;;;9.88;2.15;;;17.70;99.90;;;;;;4861183;29;20060;-50
2023/08/14 02:23:50;;;;;;;7.93;1.75;;;17.70;99.90;;;;;;4861057;29;20056;-57
2023/08/14 02:26:16;;;;;;;8.60;2.20;;;17.70;99.90;;;;;;4859594;29;20120;-50
2023/08/14 02:28:44;;;;;;;8.02;2.00;;;17.70;99.90;;;;;;4861380;29;20076;-53
2023/08/14 02:31:11;;;;;;;8.30;2.10;;;17.70;99.90;;;;;;4861002;29;20081;-54
2023/08/14 02:33:37;;;;;;;6.32;1.60;;;17.70;99.90;;;;;;4875205;29;20053;-50
2023/08/14 02:36:04;;;;;;;8.45;1.90;;;17.70;99.90;;;;;;4861187;29;20045;-52
2023/08/14 02:38:31;;;;;;;8.13;1.52;;;17.70;99.90;;;;;;4860804;29;20049;-50
2023/08/14 02:40:58;;;;;;;10.23;2.00;;;17.70;99.90;;;;;;4875168;29;20045;-53
2023/08/14 02:43:25;;;;;;;10.35;1.88;;;17.70;99.90;;;;;;4874883;29;20455;-54
2023/08/14 02:45:51;;;;;;;8.70;2.05;;;17.60;99.90;;;;;;4860711;29;20072;-49
2023/08/14 02:48:18;;;;;;;7.68;1.65;;;17.60;99.90;;;;;;4860997;29;20110;-53
2023/08/14 02:50:45;;;;;;;8.50;1.60;;;17.50;99.90;;;;;;4860781;29;20069;-54
2023/08/14 02:53:12;;;;;;;7.30;1.63;;;17.50;99.90;;;;;;4860513;29;20053;-54
2023/08/14 02:55:39;;;;;;;6.13;1.75;;;17.50;99.90;;;;;;4875092;29;20041;-53
2023/08/14 02:58:06;;;;;;;6.53;1.60;;;17.50;99.90;;;;;;4860426;29;20059;-53
2023/08/14 03:00:33;;;;;;;5.40;1.60;;;17.50;99.90;;;;;;4874919;29;20444;-55
2023/08/14 03:02:59;;;;;;;8.05;2.10;;;17.50;99.90;;;;;;4859659;29;20045;-56
2023/08/14 03:05:26;;;;;;;6.43;1.70;;;17.50;99.90;;;;;;4860831;29;20041;-55
2023/08/14 03:07:53;;;;;;;7.47;1.75;;;17.50;99.90;;;;;;4860886;29;20052;-51
2023/08/14 03:10:22;;;;;;;6.93;1.95;;;17.50;99.90;;;;;;4874756;29;20085;-49
2023/08/14 03:12:49;;;;;;;7.53;2.50;;;17.50;99.90;;;;;;4860511;29;20124;-56
2023/08/14 03:15:15;;;;;;;15.60;3.90;;;17.40;99.90;;;;;;4874989;29;20052;-57
2023/08/14 03:17:42;;;;;;;10.60;2.95;;;17.40;99.90;;;;;;4859220;29;20144;-56
2023/08/14 03:20:09;;;;;;;10.90;2.38;;;17.30;99.90;;;;;;4860620;29;20117;-57
2023/08/14 03:22:36;;;;;;;7.45;2.53;;;17.20;99.90;;;;;;4859420;29;20045;-55
2023/08/14 03:25:03;;;;;;;6.80;1.70;;;17.10;99.90;;;;;;4860949;29;20056;-52
2023/08/14 03:27:30;;;;;;;9.00;2.60;;;17.10;99.90;;;;;;4861645;29;20386;-55
2023/08/14 03:29:58;;;;;;;10.00;1.92;;;17.00;99.90;;;;;;4878548;29;20400;-54
2023/08/14 03:32:25;;;;;;;11.27;2.13;;;17.00;99.90;;;;;;4878202;29;20106;-52
2023/08/14 03:34:52;;;;;;;12.50;2.70;;;17.00;99.90;;;;;;4878148;29;20144;-56
2023/08/14 03:37:19;;;;;;;9.43;2.05;;;17.00;99.90;;;;;;4878378;29;20140;-53
2023/08/14 03:39:46;;;;;;;8.50;2.28;;;16.90;99.90;;;;;;4863918;29;20049;-49
2023/08/14 03:42:13;;;;;;;7.03;1.90;;;16.90;99.90;;;;;;4862642;29;20102;-52
2023/08/14 03:44:40;;;;;;;8.55;2.22;;;16.90;99.90;;;;;;4863929;29;20041;-54
2023/08/14 03:47:07;;;;;;;11.05;2.03;;;16.90;99.90;;;;;;4863702;29;20069;-53
2023/08/14 03:49:34;;;;;;;7.35;1.77;;;16.90;99.90;;;;;;4862387;29;20051;-54
2023/08/14 03:52:01;;;;;;;7.78;2.00;;;16.80;99.90;;;;;;4862676;29;20102;-58
2023/08/14 03:54:28;;;;;;;9.57;2.47;;;16.80;99.90;;;;;;4863911;29;20045;-51
2023/08/14 03:56:55;;;;;;;10.07;2.10;;;16.80;99.90;;;;;;4862186;29;20061;-54
2023/08/14 03:59:22;;;;;;;7.88;2.20;;;16.90;99.90;;;;;;4862005;29;20061;-55
2023/08/14 04:01:48;;;;;;;9.38;2.05;;;16.90;99.90;;;;;;4863383;29;20041;-51
2023/08/14 04:04:15;;;;;;;7.35;2.00;;;16.90;99.90;;;;;;4862368;29;20056;-52
2023/08/14 04:06:47;;;;;;;7.55;1.98;;;16.80;99.90;;;;;;4862232;29;20096;-56
2023/08/14 04:09:14;;;;;;;7.57;2.30;;;16.80;99.90;;;;;;4863419;29;20057;-52
2023/08/14 04:11:40;;;;;;;9.15;2.70;;;16.80;99.90;;;;;;4877755;29;20053;-54
2023/08/14 04:14:07;;;;;;;4.63;1.70;;;16.80;99.90;;;;;;4862115;29;20054;-54
2023/08/14 04:16:43;;;;;;;5.85;1.90;;;16.80;99.90;;;;;;4877576;29;20081;-52
2023/08/14 04:19:11;;;;;;;7.65;2.35;;;16.80;99.90;;;;;;4863267;29;20057;-53
2023/08/14 04:21:37;;;;;;;5.75;2.30;;;16.80;99.90;;;;;;4847054;29;20077;-54
2023/08/14 04:24:04;;;;;;;7.18;2.10;;;16.80;99.90;;;;;;4877109;29;20153;-53
2023/08/14 04:26:31;;;;;;;8.13;2.50;;;16.80;99.90;;;;;;4861670;29;20149;-53
2023/08/14 04:28:58;;;;;;;7.28;2.25;;;16.80;99.90;;;;;;4862097;29;20058;-50
2023/08/14 04:31:24;;;;;;;6.55;2.25;;;16.80;99.90;;;;;;4863408;29;20050;-57
2023/08/14 04:33:52;;;;;;;6.90;2.30;;;16.80;99.90;;;;;;4862863;29;20144;-54
2023/08/14 04:36:19;;;;;;;8.93;2.42;;;16.80;99.90;;;;;;4862163;29;20057;-51
2023/08/14 04:38:46;;;;;;;6.22;2.17;;;16.80;99.90;;;;;;4862519;29;20041;-51
2023/08/14 04:41:13;;;;;;;7.05;1.92;;;16.80;99.90;;;;;;4862878;29;20056;-53
2023/08/14 04:43:40;;;;;;;5.63;2.10;;;16.90;99.90;;;;;;4876771;29;20527;-53
2023/08/14 04:46:07;;;;;;;6.90;2.25;;;16.90;99.90;;;;;;4861586;29;20053;-54
2023/08/14 04:48:34;;;;;;;6.18;2.60;;;17.00;99.90;;;;;;4861637;29;20054;-53
2023/08/14 04:51:01;;;;;;;7.38;2.30;;;17.00;99.90;;;;;;4861210;29;20045;-50
2023/08/14 04:53:28;;;;;;;9.38;2.03;;;17.00;99.90;;;;;;4877022;29;20516;-53
2023/08/14 04:55:55;;;;;;;7.25;2.08;;;17.00;99.90;;;;;;4876970;29;20513;-53
2023/08/14 04:58:22;;;;;;;5.90;2.50;;;16.90;99.90;;;;;;4861146;29;20155;-51
2023/08/14 05:00:49;;;;;;;6.75;2.00;;;16.90;99.90;;;;;;4877158;29;20163;-52
2023/08/14 05:03:16;;;;;;;7.63;2.45;;;16.80;99.90;;;;;;4876852;29;20042;-51
2023/08/14 05:05:43;;;;;;;6.32;2.10;;;16.80;99.90;;;;;;4861263;29;20045;-53
2023/08/14 05:08:09;;;;;;;5.57;2.00;;;16.80;99.90;;;;;;4876657;29;20500;-56
2023/08/14 05:10:36;;;;;;;9.48;2.50;;;16.80;99.90;;;;;;4876591;29;20431;-54
2023/08/14 05:13:03;;;;;;;4.38;1.80;;;16.80;99.90;;;;;;4876704;29;20049;-55
2023/08/14 05:15:30;;;;;;;8.27;2.10;;;16.80;99.90;;;;;;4861222;29;20050;-50
2023/08/14 05:17:57;;;;;;;7.13;2.17;;;16.90;99.90;;;;;;4876484;29;20546;-52
2023/08/14 05:20:23;;;;;;;6.30;2.90;;;16.90;99.90;;;;;;4862288;29;20049;-55
2023/08/14 05:22:50;;;;;;;6.22;2.30;;;17.00;99.90;;;;;;4876578;29;20074;-52
2023/08/14 05:25:17;;;;;;;7.60;2.30;;;17.00;99.90;;;;;;4862137;29;20136;-56
2023/08/14 05:27:44;;;;;;;8.60;2.25;;;17.10;99.90;;;;;;4862209;29;20080;-54
2023/08/14 05:30:11;;;;;;;7.10;2.45;;;17.10;99.90;;;;;;4862134;29;20053;-56
2023/08/14 05:32:38;;;;;;;9.25;2.50;;;17.20;99.90;;;;;;4862415;29;20072;-53
2023/08/14 05:35:07;;;;;;;8.15;2.15;;;17.20;99.90;;;;;;4862038;29;20045;-52
2023/08/14 05:37:34;;;;;;;6.38;2.08;;;17.30;99.90;;;;;;4862064;29;20049;-55
2023/08/14 05:40:01;;;;;;;5.82;2.50;;;17.30;99.90;;;;;;4862061;29;20049;-53
2023/08/14 05:42:27;;;;;;;8.07;2.20;;;17.30;99.90;;;;;;4862044;29;20060;-52
2023/08/14 05:44:54;;;;;;;5.28;2.10;;;17.40;99.90;;;;;;4862157;29;20065;-54
2023/08/14 05:47:21;;;;;;;7.82;2.30;;;17.50;99.90;;;;;;4861827;29;20064;-53
2023/08/14 05:49:48;;;;;;;6.97;2.35;;;17.60;99.90;;;;;;4861659;29;20494;-56
2023/08/14 05:52:15;;;;;;;6.22;2.45;;;17.60;99.90;;;;;;4860966;29;20045;-51
2023/08/14 05:54:42;;;;;;;5.80;2.05;;;17.70;99.90;;;;;;4861527;29;20049;-53
2023/08/14 05:57:09;;;;;;;10.00;2.53;;;17.70;99.90;;;;;;4861292;29;20390;-55
2023/08/14 05:59:36;;;;;;;9.00;2.53;;;17.70;99.90;;;;;;4861567;29;20102;-53
2023/08/14 06:02:02;;;;;;;7.88;2.33;;;17.70;99.90;;;;;;4858971;29;20129;-56
2023/08/14 06:04:29;;;;;;;9.85;2.63;;;17.80;99.90;;;;;;4844551;29;20453;-55
2023/08/14 06:06:56;;;;;;;8.23;2.03;;;17.70;99.90;;;;;;4842538;29;20074;-53
2023/08/14 06:09:24;;;;;;;9.88;2.30;;;17.70;99.90;;;;;;4842585;29;20046;-55
2023/08/14 06:11:51;;;;;;;4.05;1.85;;;17.70;99.90;;;;;;4842386;29;20381;-52
2023/08/14 06:14:17;;;;;;;5.30;2.20;;;17.80;99.90;;;;;;4846733;29;20072;-52
2023/08/14 06:16:44;;;;;;;8.02;2.55;;;17.70;99.90;;;;;;4845206;29;20050;-50
2023/08/14 06:19:11;;;;;;;7.25;2.28;;;17.80;99.90;;;;;;4842345;29;20042;-54
2023/08/14 06:21:38;;;;;;;7.65;2.30;;;17.70;99.90;;;;;;4842274;29;20046;-51
2023/08/14 06:24:05;;;;;;;6.47;2.30;;;17.80;99.90;;;;;;4842220;29;20041;-52
2023/08/14 06:26:31;;;;;;;10.73;2.72;;;17.80;99.90;;;;;;4842437;29;20084;-53
2023/08/14 06:28:58;;;;;;;7.93;2.50;;;17.80;99.90;;;;;;4842215;29;20152;-53
2023/08/14 06:31:25;;;;;;;9.45;2.40;;;17.80;99.90;;;;;;4842213;29;20050;-51
2023/08/14 06:33:52;;;;;;;9.50;2.50;;;17.80;99.90;;;;;;4841170;29;20037;-54
2023/08/14 06:36:19;;;;;;;7.68;2.70;;;17.80;99.90;;;;;;4842471;29;20060;-50
2023/08/14 06:38:46;;;;;;;9.00;2.55;;;17.90;99.90;;;;;;4842205;29;20038;-53
2023/08/14 06:41:13;;;;;;;6.47;2.42;;;17.90;99.90;;;;;;4856007;29;20076;-52
2023/08/14 06:43:40;;;;;;;6.95;2.20;;;17.90;99.90;;;;;;4841648;29;20034;-55
2023/08/14 06:46:06;;;;;;;6.78;2.35;;;18.00;99.90;;;;;;4841653;29;20050;-53
2023/08/14 06:48:33;;;;;;;7.63;2.85;;;18.00;99.90;;;;;;4841777;29;20106;-53
2023/08/14 06:51:00;;;;;;;10.85;2.30;;;18.00;99.90;;;;;;4842248;29;20060;-55
2023/08/14 06:53:27;;;;;;;7.65;2.55;;;18.00;99.90;;;;;;4841728;29;20468;-53
2023/08/14 06:55:55;;;;;;;7.78;2.58;;;18.00;99.90;;;;;;4842170;29;20447;-51
2023/08/14 06:58:22;;;;;;;8.27;2.60;;;18.00;99.90;;;;;;4841652;29;20500;-57
2023/08/14 07:00:49;;;;;;;4.93;2.20;;;18.10;99.90;;;;;;4841888;29;20061;-56
2023/08/14 07:03:16;;;;;;;9.13;2.67;;;18.20;99.90;;;;;;4844222;29;20048;-56
2023/08/14 07:05:43;;;;;;;9.77;2.40;;;18.30;99.90;;;;;;4845571;29;20054;-55
2023/08/14 07:08:09;;;;;;;5.97;2.58;;;18.30;99.90;;;;;;4845830;29;20453;-52
2023/08/14 07:10:36;;;;;;;6.85;2.30;;;18.40;99.90;;;;;;4845371;29;20545;-54
2023/08/14 07:13:03;;;;;;;6.28;2.60;;;18.50;99.90;;;;;;4854806;29;20153;-54
2023/08/14 07:15:30;;;;;;;8.18;3.05;;;18.50;99.90;;;;;;4847909;29;20187;-55
2023/08/14 07:17:57;;;;;;;5.97;2.78;;;18.60;99.90;;;;;;4845626;29;20132;-55
2023/08/14 07:20:26;;;;;;;7.35;2.90;;;18.80;99.90;;;;;;4859659;29;20056;-53
2023/08/14 07:22:53;;;;;;;5.07;2.40;;;18.90;99.90;;;;;;4845485;29;20054;-50
2023/08/14 07:25:20;;;;;;;6.30;2.67;;;19.00;99.90;;;;;;4845025;29;20443;-56
2023/08/14 07:27:47;;;;;;;8.82;2.20;;;19.00;99.90;;;;;;4853515;29;20216;-54
2023/08/14 07:30:14;;;;;;;9.52;2.20;;;19.10;99.90;;;;;;4845277;29;20443;-53
2023/08/14 07:32:41;;;;;;;7.65;2.50;;;19.10;99.90;;;;;;4845115;29;20109;-52
2023/08/14 07:35:08;;;;;;;8.35;2.45;;;19.10;99.90;;;;;;4845181;29;20178;-57
2023/08/14 07:37:34;;;;;;;8.60;2.72;;;19.10;99.90;;;;;;4845258;29;20041;-52
2023/08/14 07:40:01;;;;;;;5.90;2.05;;;19.30;99.90;;;;;;4844556;29;20054;-54
2023/08/14 07:42:28;;;;;;;8.20;1.95;;;19.40;99.90;;;;;;4867195;29;20094;-50
2023/08/14 07:44:55;;;;;;;7.90;2.13;;;19.40;99.90;;;;;;4853333;29;20048;-54
2023/08/14 07:47:21;;;;;;;7.65;1.90;;;19.50;99.90;;;;;;4844921;29;20359;-57
2023/08/14 07:49:48;;;;;;;6.57;2.08;;;19.40;99.90;;;;;;4845232;29;20054;-49
2023/08/14 07:52:15;;;;;;;7.05;2.25;;;19.50;99.90;;;;;;4844802;29;20079;-51
2023/08/14 07:54:42;;;;;;;6.97;1.90;;;19.50;99.90;;;;;;4844754;29;20042;-50
2023/08/14 07:57:09;;;;;;;5.88;1.77;;;19.50;99.90;;;;;;4844420;29;20061;-53
2023/08/14 07:59:36;;;;;;;8.50;2.10;;;19.50;99.90;;;;;;4844838;29;20038;-57
2023/08/14 08:02:03;;;;;;;10.82;2.10;;;19.50;99.90;;;;;;4844846;29;20525;-51
2023/08/14 08:04:36;;;;;;;8.18;2.20;;;19.50;99.90;;;;;;4844689;29;20410;-53
2023/08/14 08:07:06;;;;;;;8.50;1.88;;;19.50;99.90;;;;;;4844482;29;20064;-57
2023/08/14 08:09:33;;;;;;;9.10;2.08;;;19.50;99.90;;;;;;4844354;29;20068;-51
2023/08/14 08:12:00;;;;;;;6.38;1.92;;;19.50;99.90;;;;;;4844239;29;20042;-52
2023/08/14 08:14:27;;;;;;;7.65;2.03;;;19.40;99.90;;;;;;4843581;29;20046;-51
2023/08/14 08:16:53;;;;;;;6.65;1.88;;;19.40;99.90;;;;;;4844247;29;20106;-52
2023/08/14 08:19:21;;;;;;;8.60;1.83;;;19.50;99.90;;;;;;4843893;29;20048;-54
2023/08/14 08:21:48;;;;;;;8.40;2.00;;;19.50;99.90;;;;;;4844289;29;20069;-52
2023/08/14 08:24:15;;;;;;;11.32;2.25;;;19.50;99.90;;;;;;4844258;29;20058;-54
2023/08/14 08:26:41;;;;;;;6.32;2.03;;;19.50;99.90;;;;;;4844428;29;20113;-53
2023/08/14 08:29:08;;;;;;;8.05;2.03;;;19.50;99.90;;;;;;4844053;29;20054;-55
2023/08/14 08:31:35;;;;;;;9.05;1.85;;;19.50;99.90;;;;;;4844468;29;20081;-52
2023/08/14 08:34:02;;;;;;;8.13;2.00;;;19.60;99.90;;;;;;4844176;29;20546;-52
2023/08/14 08:36:29;;;;;;;10.95;2.30;;;19.70;99.90;;;;;;4844175;29;20124;-49
2023/08/14 08:38:55;;;;;;;8.95;2.50;;;19.80;99.90;;;;;;4838903;29;20049;-50
2023/08/14 08:41:22;;;;;;;10.02;1.85;;;19.80;99.90;;;;;;4843812;29;20053;-54
2023/08/14 08:43:49;;;;;;;9.75;2.13;;;19.90;99.90;;;;;;4843440;29;20057;-54
2023/08/14 08:46:16;;;;;;;8.65;2.15;;;20.00;99.90;;;;;;4844239;29;20046;-53
2023/08/14 08:48:43;;;;;;;10.77;1.92;;;20.00;99.90;;;;;;4858501;29;20383;-50
2023/08/14 08:51:10;;;;;;;11.98;2.42;;;20.00;99.90;;;;;;4844242;29;20132;-54
2023/08/14 08:53:37;;;;;;;7.35;2.30;;;20.00;99.90;;;;;;4844408;29;20398;-54
2023/08/14 08:56:03;;;;;;;6.50;2.00;;;20.10;99.90;;;;;;4844268;29;20046;-51
2023/08/14 08:58:30;;;;;;;7.07;2.05;;;20.10;99.90;;;;;;4844148;29;20058;-52
2023/08/14 09:00:58;;;;;;;9.82;2.47;;;20.20;99.90;;;;;;4858487;29;20046;-51
2023/08/14 09:03:24;;;;;;;5.18;1.85;;;20.30;99.90;;;;;;4843881;29;20094;-57
2023/08/14 09:05:52;;;;;;;7.53;2.10;;;20.40;99.90;;;;;;4844207;29;20045;-57
2023/08/14 09:08:18;;;;;;;8.50;2.33;;;20.50;99.90;;;;;;4844010;29;20060;-58
2023/08/14 09:10:45;;;;;;;8.95;2.15;;;20.70;99.90;;;;;;4858214;29;20468;-56
2023/08/14 09:13:12;;;;;;;10.98;2.10;;;20.70;99.90;;;;;;4843980;29;20042;-57
2023/08/14 09:15:40;;;;;;;8.55;1.95;;;20.80;99.90;;;;;;4843899;29;20133;-58
2023/08/14 09:18:06;;;;;;;8.73;2.40;;;21.00;99.90;;;;;;4843515;29;20133;-58
2023/08/14 09:20:33;;;;;;;7.25;1.92;;;21.00;99.90;;;;;;4833535;29;20402;-58
2023/08/14 09:23:00;;;;;;;7.13;2.05;;;21.10;99.90;;;;;;4834071;29;20054;-58
2023/08/14 09:25:27;;;;;;;7.00;2.15;;;21.20;99.90;;;;;;4840322;29;20497;-57
2023/08/14 09:27:54;;;;;;;6.22;1.80;;;21.30;99.90;;;;;;4857989;29;20046;-58
2023/08/14 09:30:21;;;;;;;10.93;2.10;;;21.30;99.90;;;;;;4857837;29;20466;-57
2023/08/14 09:32:48;;;;;;;9.60;2.30;;;21.30;99.90;;;;;;4843637;29;20042;-58
2023/08/14 09:35:15;;;;;;;9.98;2.05;;;21.50;99.90;;;;;;4843736;29;20045;-56
2023/08/14 09:37:41;;;;;;;7.97;2.35;;;21.70;99.90;;;;;;4843274;29;20087;-58
2023/08/14 09:40:09;;;;;;;8.77;2.33;;;21.70;99.90;;;;;;4843321;29;20098;-58
2023/08/14 09:42:36;;;;;;;7.72;1.80;;;21.70;99.90;;;;;;4843076;29;20053;-59
2023/08/14 09:45:03;;;;;;;8.20;2.30;;;21.80;99.90;;;;;;4843701;29;20382;-58
2023/08/14 09:47:29;;;;;;;10.57;2.60;;;21.80;99.90;;;;;;4843548;29;20478;-55
2023/08/14 09:49:57;;;;;;;7.82;2.20;;;21.90;99.90;;;;;;4843692;29;20461;-59
2023/08/14 09:52:24;;;;;;;9.82;1.98;;;21.90;99.90;;;;;;4843257;29;20140;-57
2023/08/14 09:54:51;;;;;;;9.95;2.60;;;21.90;99.90;;;;;;4843078;29;20153;-56
2023/08/14 09:57:17;;;;;;;9.80;2.17;;;22.00;99.90;;;;;;4856586;29;20058;-59
2023/08/14 09:59:44;;;;;;;9.93;2.20;;;22.00;99.90;;;;;;4842985;29;20046;-57
2023/08/14 10:02:11;;;;;;;15.15;4.15;;;22.10;99.90;;;;;;4843044;29;20046;-58
2023/08/14 10:04:38;;;;;;;11.77;2.40;;;22.10;99.90;;;;;;4843035;29;20113;-56
2023/08/14 10:07:05;;;;;;;10.15;2.45;;;22.10;99.90;;;;;;4837222;29;20528;-57
2023/08/14 10:09:32;;;;;;;13.52;3.00;;;22.20;99.90;;;;;;4830105;29;20049;-57
2023/08/14 10:12:08;;;;;;;9.07;2.42;;;22.30;99.90;;;;;;4865213;29;20098;-57
2023/08/14 10:14:35;;;;;;;10.90;2.53;;;22.40;99.90;;;;;;4841601;29;20053;-57
2023/08/14 10:17:02;;;;;;;11.07;2.58;;;22.50;99.90;;;;;;4842106;29;20513;-58
2023/08/14 10:19:28;;;;;;;9.93;2.22;;;22.50;99.90;;;;;;4842582;29;20046;-58
2023/08/14 10:21:55;;;;;;;9.65;2.42;;;22.60;99.90;;;;;;4856228;29;20490;-57
2023/08/14 10:24:23;;;;;;;8.25;2.25;;;22.70;99.90;;;;;;4842350;29;20050;-57
2023/08/14 10:26:50;;;;;;;9.43;2.20;;;22.70;99.90;;;;;;4842141;29;20081;-57
2023/08/14 10:29:17;;;;;;;9.48;2.50;;;22.70;99.90;;;;;;4842120;29;20423;-59
2023/08/14 10:31:46;;;;;;;12.45;2.75;;;22.70;99.90;;;;;;4840575;29;20053;-58
2023/08/14 10:34:13;;;;;;;10.93;2.80;;;22.70;99.90;;;;;;4841879;29;20042;-56
2023/08/14 10:36:39;;;;;;;7.22;2.28;;;22.60;99.90;;;;;;4841535;29;20054;-55
2023/08/14 10:39:07;;;;;;;10.32;2.60;;;22.50;99.90;;;;;;4841867;29;20053;-56
2023/08/14 10:41:34;;;;;;;9.23;2.55;;;22.50;99.90;;;;;;4841773;29;20041;-57
2023/08/14 10:44:01;;;;;;;7.97;2.13;;;22.50;99.90;;;;;;4841913;29;20050;-58
2023/08/14 10:46:28;;;;;;;10.70;2.60;;;22.60;99.90;;;;;;4841563;29;20049;-56
2023/08/14 10:48:57;;;;;;;9.73;2.45;;;22.60;99.90;;;;;;4855608;29;20038;-57
2023/08/14 10:51:24;;;;;;;11.10;2.67;;;22.60;99.90;;;;;;4841669;29;20042;-58
2023/08/14 10:53:51;;;;;;;8.18;2.50;;;22.60;99.90;;;;;;4841652;29;20510;-58
2023/08/14 10:56:17;;;;;;;8.45;2.60;;;22.50;99.90;;;;;;4838222;29;20132;-57
2023/08/14 10:58:47;;;;;;;11.70;3.00;;;22.30;99.90;;;;;;4839417;29;20089;-58
2023/08/14 11:01:14;;;;;;;8.52;2.47;;;22.30;99.90;;;;;;4841486;29;20136;-59
2023/08/14 11:03:41;;;;;;;12.35;3.00;;;22.30;99.90;;;;;;4842120;29;20140;-57
2023/08/14 11:06:08;;;;;;;14.23;3.10;;;22.40;99.90;;;;;;4841493;29;20046;-57
2023/08/14 11:08:35;;;;;;;9.95;2.80;;;22.40;99.90;;;;;;4841712;29;20474;-56
2023/08/14 11:11:02;;;;;;;11.20;3.10;;;22.40;99.90;;;;;;4841958;29;20073;-57
2023/08/14 11:13:29;;;;;;;12.25;3.20;;;22.30;99.90;;;;;;4840219;29;20502;-58
2023/08/14 11:15:58;;;;;;;11.30;2.83;;;22.20;99.90;;;;;;4841400;29;20117;-58
2023/08/14 11:18:25;;;;;;;10.93;2.88;;;22.10;99.90;;;;;;4842385;29;20054;-59
2023/08/14 11:20:52;;;;;;;11.85;3.10;;;22.00;99.90;;;;;;4841888;29;20042;-57
2023/08/14 11:23:19;;;;;;;8.88;2.92;;;21.90;99.90;;;;;;4841955;29;20098;-59
2023/08/14 11:25:45;;;;;;;9.77;2.45;;;21.90;99.90;;;;;;4841733;29;20046;-58
2023/08/14 11:28:12;;;;;;;13.90;3.00;;;21.80;99.90;;;;;;4842233;29;20058;-56
2023/08/14 11:30:39;;;;;;;11.25;2.83;;;21.80;99.90;;;;;;4841843;29;20054;-57
2023/08/14 11:33:06;;;;;;;10.52;2.78;;;21.90;99.90;;;;;;4841486;29;20132;-54
2023/08/14 11:35:33;;;;;;;12.85;3.25;;;21.90;99.90;;;;;;4841400;29;20060;-57
2023/08/14 11:37:59;;;;;;;9.38;2.35;;;22.10;99.90;;;;;;4841400;29;20042;-57
2023/08/14 11:40:26;;;;;;;10.95;3.05;;;22.20;99.90;;;;;;4841442;29;20046;-58
2023/08/14 11:42:53;;;;;;;11.65;3.03;;;22.30;99.90;;;;;;4841399;29;20049;-57
2023/08/14 11:45:20;;;;;;;10.57;2.80;;;22.50;99.90;;;;;;4841200;29;20041;-56
2023/08/14 11:47:47;;;;;;;10.23;2.72;;;22.80;99.90;;;;;;4841853;29;20040;-56
2023/08/14 11:50:14;;;;;;;8.95;2.40;;;23.00;99.50;;;;;;4844946;29;20404;-58
2023/08/14 11:52:42;;;;;;;9.27;2.28;;;23.00;98.90;;;;;;4844711;29;20060;-57
2023/08/14 11:55:08;;;;;;;9.52;2.40;;;23.00;98.20;;;;;;4844897;29;20387;-56
2023/08/14 11:57:35;;;;;;;10.35;2.80;;;23.00;98.30;;;;;;4844457;29;20406;-56
2023/08/14 12:00:06;;;;;;;13.02;3.28;;;22.90;98.50;;;;;;4844981;29;20057;-53
2023/08/14 12:02:36;;;;;;;12.68;2.47;;;23.00;98.40;;;;;;4844808;29;20129;-56
2023/08/14 12:05:06;;;;;;;9.30;2.60;;;23.00;98.80;;;;;;4843057;29;20098;-57
2023/08/14 12:07:33;;;;;;;10.73;2.90;;;22.90;98.10;;;;;;4844390;29;20106;-56
2023/08/14 12:10:00;;;;;;;8.98;2.83;;;22.80;98.10;;;;;;4844204;29;20494;-57
2023/08/14 12:12:26;;;;;;;7.03;2.30;;;22.80;98.70;;;;;;4844277;29;20054;-57
2023/08/14 12:14:53;;;;;;;10.73;2.50;;;22.90;99.00;;;;;;4844562;29;20050;-57
2023/08/14 12:17:20;;;;;;;8.15;2.75;;;22.90;98.80;;;;;;4844617;29;20102;-51
2023/08/14 12:19:47;;;;;;;12.75;2.90;;;22.80;98.50;;;;;;4844559;29;20042;-57
2023/08/14 12:22:14;;;;;;;10.18;2.67;;;22.70;99.10;;;;;;4844723;29;20042;-58
2023/08/14 12:24:41;;;;;;;10.32;2.25;;;22.80;99.20;;;;;;4859160;29;20474;-58
2023/08/14 12:27:08;;;;;;;8.35;2.38;;;22.90;99.40;;;;;;4845159;29;20042;-60
2023/08/14 12:29:35;;;;;;;8.70;2.45;;;23.10;98.50;;;;;;4844723;29;20049;-58
2023/08/14 12:32:02;;;;;;;8.65;2.47;;;23.20;98.70;;;;;;4844696;29;20060;-59
2023/08/14 12:34:29;;;;;;;11.82;2.42;;;23.40;98.20;;;;;;4859091;29;20124;-58
2023/08/14 12:36:56;;;;;;;10.43;2.50;;;23.40;97.70;;;;;;4861395;29;20604;-57
2023/08/14 12:39:23;;;;;;;11.00;2.20;;;23.50;97.30;;;;;;4860033;29;20478;-57
2023/08/14 12:41:49;;;;;;;8.02;2.42;;;23.40;97.10;;;;;;4861628;29;20089;-58